Terminal Aerodrome Forecast
Issued by NWS

Home | Current Version | Previous Version | Text Only | Print | Product List | Glossary On
Versions: 1 2 3 4 5 6 7 8 9 10 11 12 13 14 15 16 17
367
FTUS45 KPIH 290119 AAA
TAFSUN
TAF AMD
KSUN 290119Z 2901/2924 15007KT P6SM VCSH SCT070
     FM290400 33006KT P6SM FEW070
     FM291700 13008KT P6SM SCT060
      AMD LTD TO CLD VIS AND WIND 2905/2913=

USA.gov is the U.S. government's official web portal to all federal, state and local government web resources and services.